Time;durP1;ratioP1;P1;durP2;ratioP2;P2;SDS_P1;SDS_P2;PMS_P1;PMS_P2;Temp;Humidity;BMP_temperature;BMP_pressure;BME280_temperature;BME280_humidity;BME280_pressure;Samples;Min_cycle;Max_cycle;Signal;HPM_P1;HPM_P2
2023/09/20 00:01:04;;;;;;;7.35;2.35;;;19.80;68.80;;;;;;5042897;28;20102;-75
2023/09/20 00:03:31;;;;;;;6.95;2.33;;;19.80;68.80;;;;;;5039648;28;20025;-75
2023/09/20 00:05:59;;;;;;;6.93;2.10;;;19.80;68.80;;;;;;5047771;28;20462;-76
2023/09/20 00:08:25;;;;;;;6.38;2.15;;;19.80;68.80;;;;;;5047712;28;20455;-75
2023/09/20 00:10:51;;;;;;;7.85;2.42;;;19.80;68.80;;;;;;5043120;28;20366;-76
2023/09/20 00:13:16;;;;;;;8.63;2.28;;;19.80;68.80;;;;;;5047489;28;20148;-76
2023/09/20 00:15:45;;;;;;;6.25;2.17;;;19.80;68.90;;;;;;5047328;28;20078;-75
2023/09/20 00:18:11;;;;;;;6.72;1.95;;;19.80;68.80;;;;;;5047995;28;20446;-76
2023/09/20 00:20:37;;;;;;;8.88;2.20;;;19.80;68.80;;;;;;5021332;28;20017;-76
2023/09/20 00:23:04;;;;;;;6.80;2.33;;;19.80;68.80;;;;;;5047756;28;20053;-76
2023/09/20 00:25:30;;;;;;;5.25;2.00;;;19.90;68.90;;;;;;5028472;28;20458;-76
2023/09/20 00:27:55;;;;;;;6.85;2.45;;;19.80;68.80;;;;;;5047587;28;20024;-76
2023/09/20 00:30:21;;;;;;;5.93;1.85;;;19.90;68.90;;;;;;5035902;28;20026;-75
2023/09/20 00:32:47;;;;;;;6.07;2.03;;;19.80;68.90;;;;;;5035555;28;20113;-75
2023/09/20 00:35:16;;;;;;;6.03;1.90;;;19.80;69.00;;;;;;5027847;28;20029;-73
2023/09/20 00:37:47;;;;;;;6.68;2.25;;;19.80;69.00;;;;;;5034108;28;20033;-73
2023/09/20 00:40:18;;;;;;;5.93;2.27;;;19.90;69.20;;;;;;5045043;28;20060;-73
2023/09/20 00:42:49;;;;;;;;;;;19.80;69.00;;;;;;5032490;28;20025;-73
2023/09/20 00:45:15;;;;;;;7.33;2.40;;;19.80;69.00;;;;;;5032930;28;19909;-73
2023/09/20 00:47:43;;;;;;;7.00;2.30;;;19.80;69.00;;;;;;5032850;28;20029;-73
2023/09/20 00:50:11;;;;;;;8.32;2.17;;;19.80;69.10;;;;;;5031562;28;20042;-73
2023/09/20 00:52:46;;;;;;;7.28;2.15;;;19.80;69.10;;;;;;5033923;28;20026;-73
2023/09/20 00:55:15;;;;;;;7.53;2.35;;;19.80;69.20;;;;;;5032911;28;20451;-74
2023/09/20 00:57:48;;;;;;;6.32;2.08;;;19.80;69.20;;;;;;5033879;28;20043;-73
2023/09/20 01:00:27;;;;;;;6.65;2.28;;;19.80;69.20;;;;;;5042192;28;20025;-73
2023/09/20 01:02:57;;;;;;;6.13;2.10;;;19.80;69.30;;;;;;5031857;28;20029;-74
2023/09/20 01:05:28;;;;;;;7.20;2.10;;;19.80;69.30;;;;;;5048703;28;20049;-74
2023/09/20 01:07:55;;;;;;;8.57;2.60;;;19.80;69.30;;;;;;5035815;28;20044;-74
2023/09/20 01:10:25;;;;;;;6.40;2.38;;;19.80;69.30;;;;;;5031726;28;20028;-73
2023/09/20 01:12:57;;;;;;;7.50;2.58;;;19.80;69.30;;;;;;5031003;28;20030;-73
2023/09/20 01:15:41;;;;;;;;;;;19.80;69.30;;;;;;5032996;28;20032;-74
2023/09/20 01:18:07;;;;;;;6.88;2.10;;;19.80;69.30;;;;;;5040270;28;19916;-73
2023/09/20 01:20:37;;;;;;;7.22;2.10;;;19.70;69.30;;;;;;5011414;28;20022;-73
2023/09/20 01:23:03;;;;;;;8.52;2.47;;;19.70;69.30;;;;;;5029572;28;20100;-73
2023/09/20 01:25:31;;;;;;;6.05;2.58;;;19.70;69.40;;;;;;5018207;28;20022;-73
2023/09/20 01:27:59;;;;;;;7.28;2.47;;;19.70;69.50;;;;;;5044629;28;20033;-73
2023/09/20 01:30:27;;;;;;;8.50;2.35;;;19.70;69.50;;;;;;5029317;28;20029;-73
2023/09/20 01:32:57;;;;;;;8.65;2.70;;;19.70;69.60;;;;;;5031381;28;20028;-74
2023/09/20 01:35:27;;;;;;;5.78;2.03;;;19.60;69.50;;;;;;5034725;28;20025;-73
2023/09/20 01:37:55;;;;;;;6.97;2.72;;;19.60;69.50;;;;;;5047828;28;20031;-73
2023/09/20 01:40:25;;;;;;;8.52;2.40;;;19.60;69.50;;;;;;5049802;28;20022;-73
2023/09/20 01:42:58;;;;;;;6.80;2.43;;;19.60;69.50;;;;;;5038375;28;20112;-76
2023/09/20 01:45:24;;;;;;;9.80;2.35;;;19.60;69.60;;;;;;5047245;28;20018;-76
2023/09/20 01:47:52;;;;;;;7.18;2.20;;;19.50;69.60;;;;;;5035811;28;20038;-75
2023/09/20 01:50:25;;;;;;;9.35;2.42;;;19.50;69.70;;;;;;5040569;28;20100;-75
2023/09/20 01:52:51;;;;;;;6.82;2.42;;;19.50;69.70;;;;;;5049775;28;20548;-76
2023/09/20 01:55:20;;;;;;;9.25;2.28;;;19.50;69.80;;;;;;5037704;28;20329;-76
2023/09/20 01:57:52;;;;;;;7.70;2.50;;;19.50;69.90;;;;;;5034700;28;20078;-76
2023/09/20 02:00:29;;;;;;;;;;;19.50;70.00;;;;;;5020665;28;20027;-73
2023/09/20 02:02:57;;;;;;;8.05;2.50;;;19.40;70.00;;;;;;5037635;28;19909;-73
2023/09/20 02:05:23;;;;;;;9.40;2.80;;;19.40;70.00;;;;;;5040460;28;20045;-73
2023/09/20 02:07:51;;;;;;;6.07;1.98;;;19.30;70.00;;;;;;5019369;28;20053;-74
2023/09/20 02:10:17;;;;;;;7.53;2.28;;;19.30;70.10;;;;;;5043773;28;20078;-74
2023/09/20 02:12:47;;;;;;;6.55;2.22;;;19.30;70.20;;;;;;5036676;28;20416;-74
2023/09/20 02:15:14;;;;;;;6.68;2.20;;;19.30;70.30;;;;;;5040122;28;20033;-74
2023/09/20 02:17:41;;;;;;;7.13;2.38;;;19.30;70.30;;;;;;5038624;28;20037;-74
2023/09/20 02:20:09;;;;;;;8.77;2.55;;;19.30;70.40;;;;;;5037956;28;20356;-74
2023/09/20 02:22:36;;;;;;;7.40;2.55;;;19.30;70.40;;;;;;5035804;28;20025;-74
2023/09/20 02:25:05;;;;;;;7.07;2.58;;;19.30;70.40;;;;;;5034976;28;20152;-74
2023/09/20 02:27:31;;;;;;;6.70;2.33;;;19.30;70.50;;;;;;5033971;28;20045;-74
2023/09/20 02:29:57;;;;;;;6.40;2.50;;;19.30;70.60;;;;;;5035355;28;20171;-74
2023/09/20 02:32:23;;;;;;;9.20;2.45;;;19.30;70.70;;;;;;5017378;28;20029;-74
2023/09/20 02:34:51;;;;;;;6.75;2.15;;;19.30;70.70;;;;;;5037924;28;20076;-74
2023/09/20 02:37:17;;;;;;;7.10;2.10;;;19.30;70.70;;;;;;5034959;28;20112;-74
2023/09/20 02:39:42;;;;;;;7.38;2.30;;;19.30;70.70;;;;;;5037921;28;20021;-74
2023/09/20 02:42:08;;;;;;;6.57;2.17;;;19.30;70.70;;;;;;5044435;28;20456;-74
2023/09/20 02:44:35;;;;;;;7.20;2.45;;;19.20;70.70;;;;;;5050957;28;20025;-74
2023/09/20 02:47:00;;;;;;;6.85;2.25;;;19.20;70.70;;;;;;5042017;28;20030;-74
2023/09/20 02:49:26;;;;;;;9.27;2.25;;;19.20;70.80;;;;;;5053311;28;20509;-74
2023/09/20 02:51:52;;;;;;;7.10;2.33;;;19.20;70.90;;;;;;5042845;28;20124;-74
2023/09/20 02:54:19;;;;;;;6.78;2.22;;;19.10;70.90;;;;;;5049132;28;20083;-74
2023/09/20 02:56:45;;;;;;;7.05;2.30;;;19.10;71.00;;;;;;5050927;28;20045;-74
2023/09/20 02:59:11;;;;;;;6.32;2.22;;;19.10;71.10;;;;;;5022357;28;20071;-74
2023/09/20 03:01:38;;;;;;;7.30;2.40;;;19.10;71.80;;;;;;5048301;28;20136;-74
2023/09/20 03:04:04;;;;;;;6.60;2.60;;;19.10;71.20;;;;;;5043240;28;20480;-74
2023/09/20 03:06:30;;;;;;;6.30;2.33;;;19.10;71.20;;;;;;5016220;28;20461;-74
2023/09/20 03:08:58;;;;;;;7.00;2.10;;;19.00;71.30;;;;;;5014883;28;20033;-74
2023/09/20 03:11:25;;;;;;;6.20;2.45;;;19.00;71.40;;;;;;5034811;28;20455;-74
2023/09/20 03:13:53;;;;;;;7.22;2.67;;;19.00;71.50;;;;;;5036332;28;20116;-74
2023/09/20 03:16:18;;;;;;;5.90;2.28;;;19.00;71.60;;;;;;5047072;28;20459;-74
2023/09/20 03:18:50;;;;;;;9.80;2.58;;;19.00;72.30;;;;;;5019982;28;20041;-74
2023/09/20 03:21:16;;;;;;;8.07;2.47;;;18.90;71.60;;;;;;5042741;28;20424;-74
2023/09/20 03:23:42;;;;;;;7.93;2.38;;;19.00;71.70;;;;;;5018956;28;20064;-74
2023/09/20 03:26:09;;;;;;;6.07;2.30;;;18.90;71.80;;;;;;5010611;28;20060;-74
2023/09/20 03:28:35;;;;;;;7.32;2.28;;;18.90;71.90;;;;;;5029114;28;20387;-74
2023/09/20 03:31:06;;;;;;;6.95;2.03;;;18.90;71.90;;;;;;5034508;28;20078;-74
2023/09/20 03:33:32;;;;;;;5.10;2.17;;;18.90;72.00;;;;;;5040575;28;20341;-74
2023/09/20 03:36:02;;;;;;;4.88;1.95;;;18.90;71.90;;;;;;5033239;28;20290;-74
2023/09/20 03:38:28;;;;;;;8.63;2.38;;;18.90;72.00;;;;;;5015765;28;20018;-74
2023/09/20 03:40:54;;;;;;;7.53;2.25;;;18.90;72.10;;;;;;5033648;28;20112;-74
2023/09/20 03:43:20;;;;;;;5.57;2.08;;;18.90;72.20;;;;;;5032034;28;20132;-74
2023/09/20 03:45:51;;;;;;;7.35;2.28;;;18.90;72.20;;;;;;5031122;28;20025;-74
2023/09/20 03:48:17;;;;;;;6.47;1.85;;;18.90;72.30;;;;;;5036952;28;20029;-74
2023/09/20 03:50:45;;;;;;;6.43;2.08;;;18.90;72.30;;;;;;5031813;28;20099;-74
2023/09/20 03:53:12;;;;;;;7.50;2.10;;;18.90;72.30;;;;;;5023480;28;20402;-74
2023/09/20 03:55:39;;;;;;;8.55;2.10;;;18.80;72.30;;;;;;5045946;28;20481;-74
2023/09/20 03:58:06;;;;;;;6.35;2.28;;;18.90;72.40;;;;;;5041883;28;20021;-74
2023/09/20 04:00:34;;;;;;;7.20;2.42;;;18.90;72.40;;;;;;5041739;28;20088;-74
2023/09/20 04:03:01;;;;;;;5.63;2.17;;;18.90;72.40;;;;;;5034381;28;20032;-74
2023/09/20 04:05:28;;;;;;;8.48;2.00;;;18.90;72.40;;;;;;5041125;28;20534;-74
2023/09/20 04:07:54;;;;;;;8.10;2.15;;;18.90;72.40;;;;;;5022115;28;20028;-74
2023/09/20 04:10:20;;;;;;;6.75;2.30;;;18.90;72.40;;;;;;5032886;28;20334;-74
2023/09/20 04:12:49;;;;;;;6.72;2.28;;;18.90;72.40;;;;;;5019802;28;20034;-74
2023/09/20 04:15:16;;;;;;;6.82;2.65;;;18.90;72.40;;;;;;5032329;28;20022;-74
2023/09/20 04:17:42;;;;;;;7.53;2.35;;;18.90;72.40;;;;;;5038516;28;20109;-74
2023/09/20 04:20:09;;;;;;;6.82;2.22;;;18.90;72.40;;;;;;5017022;28;20125;-73
2023/09/20 04:22:41;;;;;;;7.35;2.70;;;18.90;72.60;;;;;;5020444;28;20152;-73
2023/09/20 04:25:10;;;;;;;7.82;2.53;;;19.00;72.60;;;;;;5048888;28;20025;-73
2023/09/20 04:27:38;;;;;;;7.20;2.85;;;19.00;72.70;;;;;;5036999;28;20025;-72
2023/09/20 04:30:07;;;;;;;7.40;2.70;;;19.00;72.70;;;;;;5042235;28;20120;-73
2023/09/20 04:32:33;;;;;;;6.70;2.50;;;18.90;72.60;;;;;;5047552;28;20454;-74
2023/09/20 04:35:02;;;;;;;6.95;2.38;;;19.00;72.70;;;;;;5037340;28;20320;-74
2023/09/20 04:37:28;;;;;;;5.38;2.33;;;19.00;72.70;;;;;;5032219;28;20017;-74
2023/09/20 04:39:54;;;;;;;7.03;2.50;;;19.00;72.70;;;;;;5045188;28;20438;-74
2023/09/20 04:42:20;;;;;;;8.85;2.47;;;19.00;72.80;;;;;;5034653;28;20167;-74
2023/09/20 04:44:49;;;;;;;7.50;2.78;;;19.00;72.80;;;;;;5033607;28;20029;-74
2023/09/20 04:47:17;;;;;;;7.10;2.50;;;19.00;72.90;;;;;;5047296;28;20018;-74
2023/09/20 04:49:44;;;;;;;7.32;2.60;;;18.90;72.90;;;;;;5047246;28;20425;-74
2023/09/20 04:52:11;;;;;;;7.75;2.50;;;18.90;73.00;;;;;;5037299;28;20071;-71
2023/09/20 04:54:38;;;;;;;8.68;2.40;;;18.90;73.10;;;;;;5038153;28;20179;-71
2023/09/20 04:57:07;;;;;;;6.53;2.38;;;18.90;73.10;;;;;;5047655;28;20464;-71
2023/09/20 04:59:33;;;;;;;8.63;2.60;;;18.90;73.20;;;;;;5034168;28;20741;-71
2023/09/20 05:01:59;;;;;;;6.35;2.30;;;18.80;73.20;;;;;;5018228;28;20022;-71
2023/09/20 05:04:26;;;;;;;6.55;2.03;;;18.80;73.30;;;;;;5047212;28;20358;-71
2023/09/20 05:06:55;;;;;;;8.77;2.47;;;18.80;73.40;;;;;;5048452;28;20499;-71
2023/09/20 05:09:21;;;;;;;8.63;2.30;;;18.80;73.40;;;;;;5032396;28;20021;-71
2023/09/20 05:11:49;;;;;;;8.18;2.60;;;18.80;73.40;;;;;;5037208;28;20039;-72
2023/09/20 05:14:15;;;;;;;6.55;2.38;;;18.80;73.50;;;;;;5051294;28;20370;-71
2023/09/20 05:16:42;;;;;;;5.32;2.20;;;18.70;74.10;;;;;;5038748;28;20036;-71
2023/09/20 05:19:08;;;;;;;5.20;2.15;;;18.80;73.50;;;;;;5043712;28;20021;-71
2023/09/20 05:21:34;;;;;;;8.13;2.58;;;18.70;73.50;;;;;;5047327;28;20036;-71
2023/09/20 05:24:00;;;;;;;7.75;2.47;;;18.70;73.50;;;;;;5049209;28;20061;-71
2023/09/20 05:26:26;;;;;;;8.02;2.47;;;18.70;73.50;;;;;;5053410;28;20034;-71
2023/09/20 05:28:52;;;;;;;8.57;2.83;;;18.70;73.50;;;;;;5049072;28;20099;-74
2023/09/20 05:31:18;;;;;;;9.82;2.85;;;18.70;73.60;;;;;;5030362;28;20029;-74
2023/09/20 05:33:43;;;;;;;8.30;2.90;;;18.70;73.70;;;;;;5037360;28;20021;-74
2023/09/20 05:36:09;;;;;;;6.85;2.42;;;18.70;73.70;;;;;;5037766;28;20024;-75
2023/09/20 05:38:36;;;;;;;6.85;2.40;;;18.70;73.70;;;;;;5041747;28;20045;-75
2023/09/20 05:41:03;;;;;;;8.98;2.47;;;18.70;73.70;;;;;;5038767;28;20017;-76
2023/09/20 05:43:29;;;;;;;7.47;2.75;;;18.70;73.70;;;;;;5044273;28;20359;-72
2023/09/20 05:45:55;;;;;;;7.82;2.90;;;18.70;73.70;;;;;;5040571;28;20029;-75
2023/09/20 05:48:21;;;;;;;7.40;2.45;;;18.80;73.80;;;;;;5039985;28;20026;-73
2023/09/20 05:50:47;;;;;;;6.63;2.40;;;18.80;73.80;;;;;;5035720;28;20044;-77
2023/09/20 05:53:13;;;;;;;7.72;2.50;;;18.80;73.70;;;;;;5019012;28;20025;-72
2023/09/20 05:55:40;;;;;;;6.07;2.25;;;18.80;73.70;;;;;;5037658;28;20026;-73
2023/09/20 05:58:07;;;;;;;7.05;2.75;;;18.80;73.70;;;;;;5036837;28;20091;-73
2023/09/20 06:00:35;;;;;;;5.90;2.20;;;18.80;73.70;;;;;;5034619;28;20025;-76
2023/09/20 06:03:03;;;;;;;7.68;2.28;;;18.80;73.70;;;;;;5030378;28;20470;-75
2023/09/20 06:05:31;;;;;;;6.13;2.33;;;18.90;73.70;;;;;;5031819;28;20132;-76
2023/09/20 06:07:57;;;;;;;7.85;2.38;;;18.90;73.60;;;;;;5030528;28;20063;-76
2023/09/20 06:10:24;;;;;;;7.53;2.40;;;18.90;73.60;;;;;;5031376;28;20029;-77
2023/09/20 06:12:52;;;;;;;6.97;2.53;;;19.00;73.50;;;;;;5031501;28;20415;-77
2023/09/20 06:15:18;;;;;;;9.70;2.70;;;19.00;73.60;;;;;;5043853;28;20877;-76
2023/09/20 06:17:48;;;;;;;5.40;2.40;;;19.00;73.50;;;;;;5030979;28;20030;-75
2023/09/20 06:20:21;;;;;;;6.90;2.40;;;19.00;73.50;;;;;;5031392;28;20055;-76
2023/09/20 06:22:51;;;;;;;8.38;2.40;;;19.10;73.40;;;;;;5040965;28;20033;-78
2023/09/20 06:25:21;;;;;;;4.95;2.35;;;19.10;73.30;;;;;;5043784;28;20340;-76
2023/09/20 06:27:50;;;;;;;5.60;1.90;;;19.20;73.30;;;;;;5031637;28;20042;-75
2023/09/20 06:30:21;;;;;;;5.32;2.20;;;19.20;73.20;;;;;;5031205;28;20438;-76
2023/09/20 06:32:48;;;;;;;6.05;2.20;;;19.30;73.10;;;;;;5032951;28;20036;-76
2023/09/20 06:35:15;;;;;;;5.72;2.00;;;19.30;73.00;;;;;;5032238;28;20409;-77
2023/09/20 06:37:46;;;;;;;6.72;2.17;;;19.30;72.90;;;;;;5029235;28;20445;-76
2023/09/20 06:40:22;;;;;;;6.13;2.58;;;19.30;72.90;;;;;;5032643;28;20029;-79
2023/09/20 06:42:52;;;;;;;8.73;2.55;;;19.30;72.90;;;;;;5025076;28;20417;-78
2023/09/20 06:45:22;;;;;;;8.00;2.50;;;19.40;72.90;;;;;;5035465;28;20376;-79
2023/09/20 06:47:48;;;;;;;6.83;2.23;;;19.50;72.90;;;;;;5035604;28;20389;-79
2023/09/20 06:50:13;;;;;;;6.70;2.33;;;19.50;72.70;;;;;;5028968;28;20315;-74
2023/09/20 06:52:43;;;;;;;7.65;2.17;;;19.50;72.70;;;;;;5033484;28;20061;-73
2023/09/20 06:55:13;;;;;;;6.30;2.10;;;19.50;72.60;;;;;;5055223;28;20036;-72
2023/09/20 06:57:40;;;;;;;6.03;2.10;;;19.60;72.60;;;;;;5056471;28;20021;-75
2023/09/20 07:00:28;;;;;;;9.02;2.80;;;19.60;72.50;;;;;;5041686;28;20040;-76
2023/09/20 07:02:55;;;;;;;6.60;2.60;;;19.60;72.50;;;;;;5056020;28;20120;-76
2023/09/20 07:05:24;;;;;;;6.47;2.17;;;19.60;72.50;;;;;;5038540;28;20037;-75
2023/09/20 07:07:50;;;;;;;6.03;2.53;;;19.60;72.40;;;;;;5029146;28;20026;-76
2023/09/20 07:10:17;;;;;;;7.72;2.47;;;19.60;72.30;;;;;;5044129;28;20021;-76
2023/09/20 07:12:44;;;;;;;6.95;2.63;;;19.60;72.40;;;;;;5030482;28;20036;-76
2023/09/20 07:15:14;;;;;;;7.10;2.38;;;19.70;72.40;;;;;;5031592;28;20033;-75
2023/09/20 07:17:40;;;;;;;7.65;2.50;;;19.80;72.30;;;;;;5030209;28;20040;-75
2023/09/20 07:20:20;;;;;;;6.38;2.33;;;19.80;72.20;;;;;;5029675;28;20367;-76
2023/09/20 07:22:47;;;;;;;7.43;2.50;;;19.90;72.20;;;;;;5043029;28;20068;-75
2023/09/20 07:25:17;;;;;;;5.25;2.10;;;19.90;72.00;;;;;;5027009;28;20076;-75
2023/09/20 07:27:44;;;;;;;7.63;2.47;;;20.00;71.90;;;;;;5033808;28;20044;-75
2023/09/20 07:30:17;;;;;;;5.10;2.22;;;20.10;71.70;;;;;;5030677;28;20030;-75
2023/09/20 07:32:44;;;;;;;7.72;2.50;;;20.20;71.50;;;;;;5029090;28;20029;-75
2023/09/20 07:35:19;;;;;;;9.95;2.20;;;20.20;71.30;;;;;;5011761;28;20695;-75
2023/09/20 07:37:47;;;;;;;7.25;2.55;;;20.30;71.20;;;;;;5027921;28;20029;-75
2023/09/20 07:40:13;;;;;;;5.60;2.05;;;20.30;71.20;;;;;;5029334;28;20030;-75
2023/09/20 07:42:40;;;;;;;5.93;2.15;;;20.30;71.20;;;;;;5042026;28;20079;-75
2023/09/20 07:45:12;;;;;;;5.75;2.17;;;20.30;71.20;;;;;;5028915;28;20053;-76
2023/09/20 07:47:43;;;;;;;5.82;2.22;;;20.30;71.20;;;;;;5026040;28;20033;-75
2023/09/20 07:50:11;;;;;;;;;;;20.20;71.20;;;;;;5022345;28;20114;-75
2023/09/20 07:52:40;;;;;;;5.05;1.90;;;20.20;71.30;;;;;;5030718;28;20011;-75
2023/09/20 07:55:08;;;;;;;7.03;1.90;;;20.20;71.30;;;;;;5010977;28;20180;-76
2023/09/20 07:57:34;;;;;;;6.97;2.35;;;20.20;71.50;;;;;;5043395;28;20057;-75
2023/09/20 07:59:59;;;;;;;7.05;2.28;;;20.20;71.60;;;;;;5028555;28;20391;-75
2023/09/20 08:02:25;;;;;;;5.65;2.38;;;20.20;71.70;;;;;;5029201;28;20108;-75
2023/09/20 08:04:51;;;;;;;5.07;2.30;;;20.20;71.80;;;;;;5027410;28;20120;-75
2023/09/20 08:07:17;;;;;;;6.78;2.40;;;20.20;71.70;;;;;;5044416;28;20112;-76
2023/09/20 08:09:44;;;;;;;9.82;2.70;;;20.30;71.70;;;;;;5028712;28;20033;-75
2023/09/20 08:12:11;;;;;;;6.22;2.28;;;20.30;71.70;;;;;;5018971;28;20029;-75
2023/09/20 08:14:38;;;;;;;9.20;2.20;;;20.40;71.50;;;;;;5009533;28;20030;-75
2023/09/20 08:19:49;;;;;;;5.60;2.08;;;20.70;70.90;;;;;;5028623;28;20140;-75
2023/09/20 08:22:17;;;;;;;5.75;2.08;;;20.90;70.70;;;;;;5028527;28;20029;-75
2023/09/20 09:00:35;;;;;;;5.35;1.70;;;21.10;69.50;;;;;;5028108;28;20021;-76
2023/09/20 09:03:03;;;;;;;6.15;2.05;;;21.10;69.60;;;;;;5026467;28;20029;-75
2023/09/20 09:05:30;;;;;;;4.88;2.03;;;21.10;69.70;;;;;;5030290;28;20158;-75
2023/09/20 09:07:58;;;;;;;5.35;2.00;;;21.10;69.80;;;;;;5027863;28;20426;-76
2023/09/20 09:10:24;;;;;;;4.90;1.75;;;21.10;69.90;;;;;;5041517;28;20040;-75
2023/09/20 09:12:49;;;;;;;7.90;2.22;;;21.00;70.00;;;;;;5027533;28;20025;-72
2023/09/20 09:15:16;;;;;;;7.03;1.90;;;21.00;70.10;;;;;;5042270;28;20421;-75
2023/09/20 09:17:44;;;;;;;5.72;1.95;;;21.00;70.10;;;;;;5027643;28;20053;-74
2023/09/20 09:20:11;;;;;;;6.82;2.45;;;21.00;70.10;;;;;;5028242;28;20025;-72
2023/09/20 09:22:38;;;;;;;5.15;2.20;;;21.10;70.10;;;;;;5019631;28;20124;-74
2023/09/20 09:25:10;;;;;;;5.57;2.10;;;21.20;69.90;;;;;;5026598;28;20123;-74
2023/09/20 09:27:39;;;;;;;5.75;2.17;;;21.30;69.70;;;;;;5027634;28;20030;-74
2023/09/20 09:30:11;;;;;;;6.93;1.83;;;21.30;69.50;;;;;;5031059;28;20124;-74
2023/09/20 09:32:38;;;;;;;5.22;1.98;;;21.30;69.30;;;;;;5037333;28;20045;-74
2023/09/20 09:35:05;;;;;;;5.80;1.88;;;21.30;69.30;;;;;;5030385;28;20033;-74
2023/09/20 09:37:36;;;;;;;4.68;2.15;;;21.40;69.30;;;;;;5032640;28;20153;-74
2023/09/20 09:40:04;;;;;;;5.25;1.90;;;21.40;69.40;;;;;;5036044;28;20449;-74
2023/09/20 09:42:30;;;;;;;6.28;2.20;;;21.30;69.30;;;;;;5036720;28;20045;-74
2023/09/20 09:44:58;;;;;;;5.20;1.98;;;21.30;69.20;;;;;;5034424;28;20032;-74
2023/09/20 09:47:24;;;;;;;9.18;2.70;;;21.30;69.10;;;;;;5035125;28;20033;-74
2023/09/20 09:49:53;;;;;;;7.32;2.70;;;21.30;69.00;;;;;;5031258;28;20022;-74
2023/09/20 09:52:23;;;;;;;5.75;2.15;;;21.30;68.80;;;;;;5028922;28;20035;-73
2023/09/20 09:54:51;;;;;;;7.07;2.63;;;21.30;68.80;;;;;;5035112;28;20021;-74
2023/09/20 09:57:18;;;;;;;6.63;2.40;;;21.40;68.80;;;;;;5030982;28;20017;-74
2023/09/20 09:59:46;;;;;;;6.78;2.35;;;21.60;68.70;;;;;;5041126;28;20040;-74
2023/09/20 10:02:19;;;;;;;5.43;2.25;;;21.70;67.90;;;;;;5030392;28;21141;-74
2023/09/20 10:05:10;;;;;;;9.70;2.65;;;21.80;67.40;;;;;;5030923;28;20045;-74
2023/09/20 10:07:40;;;;;;;7.28;2.70;;;21.80;66.90;;;;;;5015425;28;20029;-74
2023/09/20 10:10:14;;;;;;;6.35;2.58;;;21.80;66.70;;;;;;5031291;28;20108;-74
2023/09/20 10:12:44;;;;;;;9.38;3.10;;;21.80;67.40;;;;;;5034135;28;20120;-73
2023/09/20 10:15:11;;;;;;;7.82;3.05;;;21.80;66.60;;;;;;5030818;28;20025;-74
2023/09/20 10:17:52;;;;;;;6.80;2.50;;;21.80;66.80;;;;;;5032790;28;20057;-73
2023/09/20 10:20:18;;;;;;;7.60;3.00;;;21.80;66.90;;;;;;5031706;28;20025;-73
2023/09/20 10:22:47;;;;;;;6.93;2.80;;;21.80;67.00;;;;;;5046199;28;20041;-73
2023/09/20 10:25:29;;;;;;;7.38;3.00;;;21.80;67.00;;;;;;5033414;28;20025;-74
2023/09/20 10:27:55;;;;;;;6.95;2.47;;;21.90;67.00;;;;;;5031166;28;20036;-74
2023/09/20 10:30:21;;;;;;;6.30;2.53;;;21.90;67.00;;;;;;5030165;28;20033;-74
2023/09/20 10:32:47;;;;;;;7.85;3.00;;;21.90;67.10;;;;;;5031435;28;20381;-74
2023/09/20 10:35:34;;;;;;;6.22;2.70;;;21.80;66.90;;;;;;5030780;28;20507;-74
2023/09/20 10:38:08;;;;;;;8.02;2.40;;;21.80;67.00;;;;;;5031406;28;20112;-74
2023/09/20 10:40:51;;;;;;;7.07;2.80;;;21.80;67.00;;;;;;5019926;28;20030;-74
2023/09/20 10:43:35;;;;;;;4.70;2.20;;;21.80;67.20;;;;;;5031873;28;20359;-74
2023/09/20 10:46:22;;;;;;;7.25;2.70;;;21.80;67.10;;;;;;5030024;28;20030;-74
2023/09/20 10:48:51;;;;;;;5.63;2.45;;;21.80;67.10;;;;;;5030512;28;20340;-74
2023/09/20 10:51:49;;;;;;;6.18;2.60;;;22.00;67.10;;;;;;5029562;28;20346;-75
2023/09/20 10:54:22;;;;;;;4.82;2.25;;;22.10;66.60;;;;;;5032085;28;20446;-75
2023/09/20 10:56:51;;;;;;;5.18;2.28;;;22.20;66.30;;;;;;5026584;28;20068;-72
2023/09/20 10:59:26;;;;;;;5.30;2.08;;;22.30;66.30;;;;;;5030051;28;20453;-73
2023/09/20 11:01:56;;;;;;;6.22;2.35;;;22.40;66.00;;;;;;5028527;28;20116;-73
2023/09/20 11:04:24;;;;;;;5.53;2.45;;;22.50;65.70;;;;;;5045491;28;20033;-74
2023/09/20 11:06:54;;;;;;;6.57;2.15;;;22.50;65.60;;;;;;5043716;28;20063;-73
2023/09/20 11:09:23;;;;;;;6.13;2.47;;;22.50;65.60;;;;;;5027373;28;20053;-74
2023/09/20 11:11:53;;;;;;;5.55;2.28;;;22.40;65.60;;;;;;5027057;28;20075;-73
2023/09/20 11:14:19;;;;;;;5.95;2.28;;;22.50;65.50;;;;;;5030716;28;20033;-73
2023/09/20 11:16:45;;;;;;;5.90;2.40;;;22.60;65.40;;;;;;5043470;28;20037;-73
2023/09/20 11:19:11;;;;;;;6.00;2.35;;;22.60;65.30;;;;;;5028364;28;20029;-73
2023/09/20 11:21:41;;;;;;;5.13;1.80;;;22.70;65.40;;;;;;5030391;28;20036;-73
2023/09/20 11:24:11;;;;;;;4.13;1.83;;;22.70;65.30;;;;;;5029077;28;20060;-73
2023/09/20 11:26:40;;;;;;;5.30;1.87;;;22.80;65.70;;;;;;5028010;28;20048;-72
2023/09/20 11:29:09;;;;;;;5.43;1.90;;;22.70;65.00;;;;;;5026849;28;20794;-72
2023/09/20 11:31:36;;;;;;;4.90;1.83;;;22.70;65.00;;;;;;5029336;28;20044;-72
2023/09/20 11:34:04;;;;;;;6.13;2.50;;;22.80;65.00;;;;;;5044741;28;20033;-73
2023/09/20 11:36:37;;;;;;;4.78;1.77;;;22.80;64.70;;;;;;5029618;28;20030;-73
2023/09/20 11:39:05;;;;;;;5.57;2.30;;;22.80;64.70;;;;;;5027547;28;20025;-73
2023/09/20 11:41:32;;;;;;;6.22;1.88;;;22.80;64.60;;;;;;5044929;28;20037;-73
2023/09/20 11:44:02;;;;;;;5.88;1.70;;;22.80;64.60;;;;;;5029797;28;20332;-73
2023/09/20 11:46:33;;;;;;;5.47;1.90;;;22.70;64.80;;;;;;5042504;28;20431;-73
2023/09/20 11:49:03;;;;;;;6.57;1.92;;;22.60;64.90;;;;;;5028931;28;20079;-73
2023/09/20 11:51:30;;;;;;;4.50;2.10;;;22.60;65.00;;;;;;5013197;28;20032;-73
2023/09/20 11:53:57;;;;;;;5.15;2.08;;;22.70;64.90;;;;;;5031127;28;20029;-73
2023/09/20 11:56:29;;;;;;;4.07;1.85;;;22.80;64.70;;;;;;5030661;28;20339;-73
2023/09/20 11:58:59;;;;;;;3.75;1.55;;;22.90;64.50;;;;;;5028055;28;20033;-73
2023/09/20 12:01:32;;;;;;;4.82;1.75;;;22.90;64.40;;;;;;5030410;28;20033;-73
2023/09/20 12:03:59;;;;;;;4.13;1.70;;;22.90;64.20;;;;;;5043766;28;20030;-73
2023/09/20 12:06:25;;;;;;;6.38;1.90;;;22.90;64.10;;;;;;5031505;28;20025;-73
2023/09/20 12:08:53;;;;;;;4.28;1.65;;;22.90;64.20;;;;;;5027963;28;20505;-73
2023/09/20 12:11:20;;;;;;;5.05;1.55;;;23.10;64.00;;;;;;5031723;28;20025;-73
2023/09/20 12:13:46;;;;;;;6.68;1.80;;;23.10;63.80;;;;;;5040804;28;20033;-73
2023/09/20 12:16:14;;;;;;;5.20;1.80;;;23.20;63.50;;;;;;5050630;28;20029;-74
2023/09/20 12:18:41;;;;;;;6.47;1.73;;;23.20;63.50;;;;;;5052485;28;20043;-73
2023/09/20 12:21:10;;;;;;;3.90;1.48;;;23.20;63.50;;;;;;5033501;28;20021;-75
2023/09/20 12:23:37;;;;;;;5.20;1.73;;;23.20;63.50;;;;;;5029376;28;20450;-76
2023/09/20 12:26:05;;;;;;;3.95;1.65;;;23.30;63.50;;;;;;5043609;28;20365;-75
2023/09/20 12:28:31;;;;;;;4.05;1.42;;;23.30;63.40;;;;;;5031616;28;20108;-76
2023/09/20 12:31:00;;;;;;;3.88;1.48;;;23.30;63.20;;;;;;5028315;28;20510;-75
2023/09/20 12:33:27;;;;;;;5.28;1.70;;;23.20;63.10;;;;;;5029430;28;20029;-76
2023/09/20 12:35:53;;;;;;;7.45;1.90;;;23.20;63.20;;;;;;5027543;28;20121;-76
2023/09/20 12:38:19;;;;;;;5.30;1.70;;;23.10;63.10;;;;;;5028219;28;20030;-77
2023/09/20 12:40:45;;;;;;;5.38;2.08;;;23.00;63.10;;;;;;5027495;28;20412;-74
2023/09/20 12:43:11;;;;;;;6.43;2.22;;;23.00;63.10;;;;;;5029264;28;20069;-75
2023/09/20 12:45:36;;;;;;;4.88;1.52;;;23.00;63.20;;;;;;5026966;28;20121;-75
2023/09/20 12:48:02;;;;;;;4.88;1.80;;;23.00;63.10;;;;;;5028148;28;20083;-75
2023/09/20 12:50:36;;;;;;;5.95;1.77;;;23.00;63.20;;;;;;5027124;28;20029;-75
2023/09/20 12:53:02;;;;;;;7.18;1.88;;;22.90;63.20;;;;;;5027760;28;20045;-75
2023/09/20 12:55:27;;;;;;;5.28;1.55;;;22.90;63.30;;;;;;5011678;28;20033;-76
2023/09/20 12:57:53;;;;;;;4.32;1.55;;;22.90;63.20;;;;;;5012032;28;20155;-75
2023/09/20 13:00:19;;;;;;;2.80;1.30;;;23.00;63.40;;;;;;5028527;28;20032;-74
2023/09/20 13:02:47;;;;;;;5.20;2.03;;;23.00;63.50;;;;;;5028510;28;20030;-74
2023/09/20 13:05:13;;;;;;;5.47;2.20;;;22.90;63.30;;;;;;5029612;28;20470;-75
2023/09/20 13:07:39;;;;;;;3.92;1.50;;;23.00;63.20;;;;;;5044078;28;20025;-74
2023/09/20 13:10:13;;;;;;;5.90;1.88;;;23.00;62.50;;;;;;5029987;28;20037;-75
2023/09/20 13:12:42;;;;;;;4.28;1.88;;;22.90;62.70;;;;;;5042927;28;20032;-75
2023/09/20 13:15:14;;;;;;;3.85;1.70;;;22.90;62.80;;;;;;5029087;28;20033;-76
2023/09/20 13:17:43;;;;;;;4.38;1.77;;;22.90;62.70;;;;;;5027409;28;20109;-75
2023/09/20 13:20:12;;;;;;;13.05;2.22;;;22.90;62.80;;;;;;5027372;28;20041;-75
2023/09/20 13:22:39;;;;;;;3.90;1.67;;;22.90;62.90;;;;;;5027500;28;20025;-75
2023/09/20 13:25:08;;;;;;;10.70;2.05;;;22.90;62.90;;;;;;5028657;28;20120;-75
2023/09/20 13:27:34;;;;;;;5.15;1.88;;;22.90;62.90;;;;;;5028493;28;20033;-75
2023/09/20 13:30:00;;;;;;;5.53;1.85;;;23.00;63.00;;;;;;5043149;28;20075;-75
2023/09/20 13:32:26;;;;;;;5.90;2.03;;;23.00;62.80;;;;;;5032312;28;20429;-75